Time;durP1;ratioP1;P1;durP2;ratioP2;P2;SDS_P1;SDS_P2;PMS_P1;PMS_P2;Temp;Humidity;BMP_temperature;BMP_pressure;BME280_temperature;BME280_humidity;BME280_pressure;Samples;Min_cycle;Max_cycle;Signal;HPM_P1;HPM_P2
2021/03/01 00:00:38;;;;;;;31.70;8.63;;;3.70;99.90;;;;;;4951031;27;20090;-83
2021/03/01 00:03:01;;;;;;;21.35;8.02;;;3.60;99.90;;;;;;4955355;27;20081;-84
2021/03/01 00:05:24;;;;;;;31.50;8.50;;;2.10;99.90;;;;;;4954087;27;20109;-82
2021/03/01 00:07:47;;;;;;;20.83;8.07;;;3.70;99.90;;;;;;4952587;27;20098;-82
2021/03/01 00:10:11;;;;;;;35.13;8.65;;;3.70;99.90;;;;;;4953052;27;21284;-82
2021/03/01 00:12:35;;;;;;;22.10;7.53;;;3.70;99.90;;;;;;4954560;27;20437;-81
2021/03/01 00:14:57;;;;;;;32.17;9.27;;;3.70;99.90;;;;;;4945150;27;22515;-83
2021/03/01 00:17:20;;;;;;;31.73;8.75;;;;;;;;;;4957742;27;20093;-81
2021/03/01 00:19:43;;;;;;;30.77;8.90;;;3.70;99.90;;;;;;4957823;27;20086;-82
2021/03/01 00:22:06;;;;;;;24.48;8.75;;;3.70;99.90;;;;;;4951739;27;20163;-82
2021/03/01 00:24:28;;;;;;;24.45;7.70;;;3.70;99.90;;;;;;4959405;27;20479;-82
2021/03/01 00:26:51;;;;;;;33.80;8.25;;;3.70;99.90;;;;;;4957815;27;20092;-82
2021/03/01 00:29:14;;;;;;;29.98;8.45;;;;;;;;;;4957302;27;20082;-82
2021/03/01 00:31:40;;;;;;;30.70;7.82;;;3.70;99.90;;;;;;4958144;27;22273;-83
2021/03/01 00:34:05;;;;;;;;;;;3.70;99.90;;;;;;4956966;27;20081;-83
2021/03/01 00:36:27;;;;;;;21.77;7.93;;;3.60;99.90;;;;;;4954489;27;20056;-83
2021/03/01 00:38:50;;;;;;;30.77;7.93;;;3.60;99.90;;;;;;4945614;27;20540;-83
2021/03/01 00:41:12;;;;;;;21.10;7.40;;;3.50;99.90;;;;;;4959000;27;20090;-82
2021/03/01 00:43:36;;;;;;;28.10;8.48;;;3.50;99.90;;;;;;4956164;27;20090;-81
2021/03/01 00:45:59;;;;;;;24.45;8.07;;;3.50;99.90;;;;;;4956331;27;20473;-83
2021/03/01 00:48:22;;;;;;;26.60;8.35;;;3.50;99.90;;;;;;4954638;27;20086;-83
2021/03/01 00:50:44;;;;;;;18.52;7.72;;;3.40;99.90;;;;;;4958402;27;20094;-83
2021/03/01 00:53:07;;;;;;;17.80;7.80;;;3.40;99.90;;;;;;4956248;27;20086;-82
2021/03/01 00:55:29;;;;;;;28.85;8.50;;;3.50;99.90;;;;;;4954227;27;20094;-82
2021/03/01 00:57:52;;;;;;;20.58;7.45;;;3.50;99.90;;;;;;4957705;27;20082;-83
2021/03/01 01:00:18;;;;;;;19.60;8.07;;;3.50;99.90;;;;;;4939221;28;20089;-83
2021/03/01 01:02:41;;;;;;;23.02;8.75;;;3.50;99.90;;;;;;4953962;27;20082;-82
2021/03/01 01:05:05;;;;;;;29.42;7.47;;;3.50;99.90;;;;;;4956592;27;20090;-82
2021/03/01 01:07:28;;;;;;;24.95;9.25;;;3.60;99.90;;;;;;4954555;27;20094;-82
2021/03/01 01:09:50;;;;;;;27.45;7.88;;;3.60;99.90;;;;;;4947208;27;20086;-82
2021/03/01 01:12:13;;;;;;;36.25;9.15;;;3.50;99.90;;;;;;4948291;27;20457;-81
2021/03/01 01:14:36;;;;;;;27.85;8.43;;;3.50;99.90;;;;;;4948935;27;20090;-80
2021/03/01 01:16:59;;;;;;;28.90;9.15;;;3.60;99.90;;;;;;4954023;27;20552;-84
2021/03/01 01:19:22;;;;;;;26.25;8.38;;;3.50;99.90;;;;;;4954609;27;20096;-83
2021/03/01 01:21:45;;;;;;;26.73;8.80;;;3.50;99.90;;;;;;4955711;27;20143;-83
2021/03/01 01:24:08;;;;;;;29.48;9.07;;;3.60;99.90;;;;;;4954331;27;20452;-82
2021/03/01 01:26:30;;;;;;;23.70;7.95;;;3.60;99.90;;;;;;4955145;27;20425;-81
2021/03/01 01:28:53;;;;;;;34.67;9.05;;;3.50;99.90;;;;;;4957523;27;20090;-83
2021/03/01 01:31:15;;;;;;;20.77;8.70;;;3.60;99.90;;;;;;4957305;27;20084;-80
2021/03/01 01:33:38;;;;;;;20.85;8.88;;;3.70;99.90;;;;;;4954679;27;20119;-83
2021/03/01 01:36:01;;;;;;;33.92;8.85;;;3.60;99.90;;;;;;4954610;27;20142;-83
2021/03/01 01:38:24;;;;;;;27.10;10.02;;;3.60;99.90;;;;;;4954517;27;20086;-82
2021/03/01 01:40:47;;;;;;;22.50;8.98;;;3.70;99.90;;;;;;4954066;27;20152;-79
2021/03/01 01:43:09;;;;;;;22.52;8.48;;;3.70;99.90;;;;;;4954747;27;20503;-82
2021/03/01 01:45:32;;;;;;;21.92;8.70;;;;;;;;;;4955030;27;20082;-82
2021/03/01 01:47:55;;;;;;;33.00;8.95;;;3.60;99.90;;;;;;4953347;27;20694;-83
2021/03/01 01:50:22;;;;;;;34.65;8.73;;;3.60;99.90;;;;;;4954025;27;20167;-83
2021/03/01 01:52:45;;;;;;;24.70;8.63;;;3.50;99.90;;;;;;4939724;27;20552;-83
2021/03/01 01:55:11;;;;;;;28.50;9.52;;;3.50;99.90;;;;;;4952590;27;20575;-83
2021/03/01 01:57:33;;;;;;;29.13;9.88;;;3.50;99.90;;;;;;4954992;27;20100;-83
2021/03/01 01:59:56;;;;;;;20.67;8.68;;;3.50;99.90;;;;;;4952944;27;20107;-83
2021/03/01 02:02:18;;;;;;;30.20;9.45;;;3.60;99.90;;;;;;4956533;27;20090;-82
2021/03/01 02:04:45;;;;;;;30.83;9.38;;;3.60;99.90;;;;;;4950132;27;20085;-83
2021/03/01 02:07:13;;;;;;;25.02;9.57;;;3.60;99.90;;;;;;4955010;27;20570;-83
2021/03/01 02:09:47;;;;;;;22.35;8.70;;;3.60;99.90;;;;;;4954444;27;20085;-83
2021/03/01 02:12:15;;;;;;;24.88;9.40;;;3.60;99.90;;;;;;4953031;27;20419;-82
2021/03/01 02:15:06;;;;;;;34.33;9.82;;;3.50;99.90;;;;;;4952597;27;20093;-83
2021/03/01 02:17:29;;;;;;;26.35;9.75;;;3.50;99.90;;;;;;4949416;27;20085;-83
2021/03/01 02:19:51;;;;;;;27.80;9.50;;;3.50;99.90;;;;;;4956803;27;20172;-83
2021/03/01 02:22:15;;;;;;;35.75;10.45;;;3.40;99.90;;;;;;4955953;27;21101;-83
2021/03/01 02:24:41;;;;;;;26.25;10.10;;;3.40;99.90;;;;;;4951927;27;20127;-83
2021/03/01 02:27:06;;;;;;;33.55;9.60;;;3.40;99.90;;;;;;4950410;27;20530;-83
2021/03/01 02:29:29;;;;;;;29.20;10.52;;;3.40;99.90;;;;;;4954549;27;20193;-83
2021/03/01 02:31:53;;;;;;;24.67;9.90;;;3.40;99.90;;;;;;4950922;27;20471;-83
2021/03/01 02:34:19;;;;;;;28.50;9.73;;;3.40;99.90;;;;;;4953020;27;20081;-83
2021/03/01 02:36:45;;;;;;;24.55;9.45;;;3.40;99.90;;;;;;4953898;27;20086;-83
2021/03/01 02:39:09;;;;;;;35.25;10.10;;;3.40;99.90;;;;;;4950988;27;20089;-82
2021/03/01 02:41:33;;;;;;;30.08;10.85;;;3.40;99.90;;;;;;4949142;27;20089;-83
2021/03/01 02:43:57;;;;;;;27.92;10.20;;;3.50;99.90;;;;;;4952741;27;20110;-82
2021/03/01 02:46:20;;;;;;;23.13;8.88;;;3.40;99.90;;;;;;4954706;27;20409;-83
2021/03/01 02:48:43;;;;;;;23.08;9.25;;;3.40;99.90;;;;;;4954257;27;20654;-83
2021/03/01 02:51:07;;;;;;;30.23;9.77;;;3.30;99.90;;;;;;4957848;27;20090;-83
2021/03/01 02:53:31;;;;;;;33.05;9.88;;;3.30;99.90;;;;;;4951752;27;20086;-83
2021/03/01 02:55:55;;;;;;;31.05;9.23;;;3.30;99.90;;;;;;4951876;27;20097;-82
2021/03/01 02:58:21;;;;;;;31.05;9.98;;;3.40;99.90;;;;;;4955267;27;20081;-82
2021/03/01 03:00:45;;;;;;;;;;;3.40;99.90;;;;;;4951422;27;20104;-83
2021/03/01 03:03:09;;;;;;;27.55;9.18;;;3.30;99.90;;;;;;4956428;27;20014;-82
2021/03/01 03:05:33;;;;;;;24.00;9.60;;;3.30;99.90;;;;;;4949210;27;20101;-83
2021/03/01 03:07:58;;;;;;;33.05;9.95;;;3.30;99.90;;;;;;4953238;27;20498;-83
2021/03/01 03:10:22;;;;;;;29.20;10.70;;;3.40;99.90;;;;;;4951370;27;20085;-83
2021/03/01 03:12:45;;;;;;;27.67;10.73;;;3.50;99.90;;;;;;4951942;27;20594;-84
2021/03/01 03:15:14;;;;;;;40.63;10.35;;;3.40;99.90;;;;;;4954274;27;20082;-82
2021/03/01 03:17:39;;;;;;;38.47;9.95;;;3.40;99.90;;;;;;4954885;27;20089;-83
2021/03/01 03:20:05;;;;;;;33.72;12.30;;;3.40;99.90;;;;;;4951780;27;20164;-82
2021/03/01 03:22:27;;;;;;;;;;;3.40;99.90;;;;;;4955101;27;20133;-82
2021/03/01 03:24:49;;;;;;;28.42;10.10;;;3.20;99.90;;;;;;4950196;27;19962;-82
2021/03/01 03:27:12;;;;;;;36.45;11.80;;;3.20;99.90;;;;;;4954287;27;20459;-83
2021/03/01 03:29:36;;;;;;;27.15;10.95;;;3.10;99.90;;;;;;4954196;27;20084;-81
2021/03/01 03:31:59;;;;;;;38.65;11.48;;;3.10;99.90;;;;;;4954264;27;20103;-82
2021/03/01 03:34:21;;;;;;;29.77;10.82;;;3.10;99.90;;;;;;4953631;27;20082;-82
2021/03/01 03:37:02;;;;;;;33.72;11.45;;;3.10;99.90;;;;;;4951593;27;20901;-82
2021/03/01 03:39:25;;;;;;;32.55;11.35;;;3.10;99.90;;;;;;4951502;27;20112;-83
2021/03/01 03:41:52;;;;;;;36.63;13.15;;;3.10;99.90;;;;;;4949919;27;20513;-83
2021/03/01 03:44:16;;;;;;;36.38;12.00;;;3.10;99.90;;;;;;4952227;27;20124;-83
2021/03/01 03:46:41;;;;;;;43.67;11.82;;;3.20;99.90;;;;;;4955318;27;20392;-83
2021/03/01 03:49:04;;;;;;;33.50;11.60;;;3.20;99.90;;;;;;4954472;27;20089;-83
2021/03/01 03:51:30;;;;;;;33.10;12.60;;;3.30;99.90;;;;;;4957140;27;20085;-82
2021/03/01 03:53:57;;;;;;;38.80;12.15;;;3.30;99.90;;;;;;4955383;27;20097;-83
2021/03/01 03:56:23;;;;;;;29.27;12.35;;;3.30;99.90;;;;;;4956632;27;20078;-83
2021/03/01 03:58:50;;;;;;;37.42;13.77;;;3.30;99.90;;;;;;4956262;27;20841;-83
2021/03/01 04:01:13;;;;;;;48.50;12.35;;;3.30;99.90;;;;;;4954418;27;20085;-82
2021/03/01 04:03:38;;;;;;;49.80;13.73;;;3.40;99.90;;;;;;4954266;27;20135;-84
2021/03/01 04:06:01;;;;;;;34.88;13.65;;;3.40;99.90;;;;;;4956018;27;20097;-83
2021/03/01 04:08:27;;;;;;;44.28;13.32;;;3.40;99.90;;;;;;4954333;27;20086;-82
2021/03/01 04:10:53;;;;;;;49.50;14.80;;;3.40;99.90;;;;;;4955272;27;20082;-83
2021/03/01 04:13:17;;;;;;;41.55;14.63;;;3.40;99.90;;;;;;4958288;27;20096;-82
2021/03/01 04:15:44;;;;;;;50.05;15.23;;;3.40;99.90;;;;;;4955784;27;20475;-81
2021/03/01 04:18:08;;;;;;;43.38;14.57;;;3.40;99.90;;;;;;4954202;27;20085;-82
2021/03/01 04:20:35;;;;;;;41.35;13.60;;;3.40;99.90;;;;;;4958313;27;20171;-83
2021/03/01 04:22:57;;;;;;;34.85;13.57;;;3.30;99.90;;;;;;4956378;27;20112;-83
2021/03/01 04:25:22;;;;;;;35.10;12.48;;;3.30;99.90;;;;;;4955437;27;20093;-83
2021/03/01 04:27:46;;;;;;;37.60;13.30;;;3.30;99.90;;;;;;4958085;27;20140;-83
2021/03/01 04:30:11;;;;;;;36.95;11.20;;;3.30;99.90;;;;;;4952452;27;20178;-83
2021/03/01 04:32:37;;;;;;;28.90;11.27;;;3.30;99.90;;;;;;4954665;27;20151;-83
2021/03/01 04:35:00;;;;;;;34.00;11.27;;;3.30;99.90;;;;;;4956206;27;20129;-83
2021/03/01 04:37:23;;;;;;;36.83;10.45;;;3.40;99.90;;;;;;4956496;27;20456;-83
2021/03/01 04:39:46;;;;;;;37.40;10.52;;;3.40;99.90;;;;;;4955573;27;20594;-83
2021/03/01 04:42:08;;;;;;;32.58;10.45;;;3.40;99.90;;;;;;4955808;27;20085;-81
2021/03/01 04:44:32;;;;;;;34.63;11.98;;;3.30;99.90;;;;;;4956864;27;20081;-82
2021/03/01 04:46:55;;;;;;;32.08;9.35;;;3.40;99.90;;;;;;4947966;27;20082;-83
2021/03/01 04:49:19;;;;;;;31.30;10.18;;;3.40;99.90;;;;;;4951509;27;20089;-83
2021/03/01 04:51:42;;;;;;;24.88;9.20;;;3.40;99.90;;;;;;4954052;27;20129;-83
2021/03/01 04:54:08;;;;;;;26.05;9.40;;;3.30;99.90;;;;;;4954920;27;20456;-82
2021/03/01 04:56:31;;;;;;;32.03;10.18;;;3.30;99.90;;;;;;4957335;27;20459;-81
2021/03/01 04:58:55;;;;;;;32.65;9.35;;;3.30;99.90;;;;;;4955584;27;20085;-82
2021/03/01 05:01:18;;;;;;;28.33;9.55;;;3.40;99.90;;;;;;4946157;27;20514;-83
2021/03/01 05:03:42;;;;;;;34.85;9.43;;;3.40;99.90;;;;;;4941083;27;20536;-83
2021/03/01 05:06:04;;;;;;;36.80;10.20;;;3.40;99.90;;;;;;4947380;28;20498;-82
2021/03/01 05:08:34;;;;;;;33.08;11.43;;;3.40;99.90;;;;;;4947093;28;20082;-82
2021/03/01 05:10:58;;;;;;;33.45;9.30;;;3.40;99.90;;;;;;4944718;28;20078;-82
2021/03/01 05:13:21;;;;;;;34.95;10.05;;;3.40;99.90;;;;;;4947870;28;20174;-83
2021/03/01 05:15:43;;;;;;;34.97;9.77;;;3.40;99.90;;;;;;4948102;27;20101;-81
2021/03/01 05:18:06;;;;;;;37.78;11.38;;;3.40;99.90;;;;;;4947646;28;20097;-83
2021/03/01 05:20:31;;;;;;;37.50;11.30;;;3.40;99.90;;;;;;4944074;28;20222;-82
2021/03/01 05:22:53;;;;;;;44.80;11.50;;;3.30;99.90;;;;;;4953506;27;20109;-82
2021/03/01 05:25:16;;;;;;;38.22;11.93;;;3.40;99.90;;;;;;4942297;27;20127;-82
2021/03/01 05:27:40;;;;;;;42.75;12.02;;;;;;;;;;4956134;27;20097;-82
2021/03/01 05:30:06;;;;;;;43.75;12.57;;;3.40;99.90;;;;;;4955993;27;20082;-80
2021/03/01 05:32:29;;;;;;;50.08;13.50;;;3.40;99.90;;;;;;4938757;27;20516;-83
2021/03/01 05:34:52;;;;;;;37.58;12.43;;;3.40;99.90;;;;;;4948057;27;20090;-82
2021/03/01 05:37:14;;;;;;;40.53;12.98;;;3.40;99.90;;;;;;4950067;27;20086;-79
2021/03/01 05:39:37;;;;;;;48.88;13.50;;;3.40;99.90;;;;;;4951417;27;20093;-82
2021/03/01 05:42:00;;;;;;;41.35;12.88;;;3.40;99.90;;;;;;4956003;27;20088;-82
2021/03/01 05:44:25;;;;;;;39.53;13.25;;;3.40;99.90;;;;;;4956213;27;20118;-83
2021/03/01 05:46:49;;;;;;;41.20;12.65;;;3.50;99.90;;;;;;4958813;27;20441;-83
2021/03/01 05:49:12;;;;;;;39.10;13.30;;;3.50;99.90;;;;;;4952436;27;20177;-82
2021/03/01 05:51:37;;;;;;;38.47;12.18;;;3.50;99.90;;;;;;4956331;27;20113;-82
2021/03/01 05:54:01;;;;;;;56.10;14.07;;;3.50;99.90;;;;;;4951818;27;20162;-83
2021/03/01 05:56:24;;;;;;;43.15;12.27;;;3.50;99.90;;;;;;4951949;27;20088;-82
2021/03/01 05:58:47;;;;;;;45.38;14.30;;;3.60;99.90;;;;;;4958165;27;20086;-83
2021/03/01 06:01:12;;;;;;;43.60;12.40;;;3.60;99.90;;;;;;4945448;27;21338;-82
2021/03/01 06:03:35;;;;;;;43.15;12.45;;;3.60;99.90;;;;;;4950342;27;20113;-81
2021/03/01 06:05:59;;;;;;;42.75;12.90;;;3.60;99.90;;;;;;4954322;27;20461;-83
2021/03/01 06:08:23;;;;;;;38.42;11.13;;;3.60;99.90;;;;;;4954429;27;20073;-80
2021/03/01 06:10:45;;;;;;;41.72;12.60;;;3.60;99.90;;;;;;4943102;27;20110;-83
2021/03/01 06:13:08;;;;;;;32.97;12.18;;;3.70;99.90;;;;;;4948773;27;20086;-83
2021/03/01 06:15:30;;;;;;;37.25;11.88;;;3.70;99.90;;;;;;4955247;27;20082;-82
2021/03/01 06:18:12;;;;;;;34.28;11.10;;;3.70;99.90;;;;;;4953651;27;20095;-83
2021/03/01 06:20:36;;;;;;;35.17;10.65;;;3.60;99.90;;;;;;4952309;27;20472;-83
2021/03/01 06:22:58;;;;;;;38.25;11.68;;;3.70;99.90;;;;;;4952313;27;20086;-82
2021/03/01 06:25:21;;;;;;;40.50;12.10;;;3.70;99.90;;;;;;4951476;27;20602;-81
2021/03/01 06:27:55;;;;;;;46.88;11.20;;;3.70;99.90;;;;;;4952892;27;20531;-82
2021/03/01 06:30:19;;;;;;;52.45;11.80;;;3.70;99.90;;;;;;4952021;27;20535;-83
2021/03/01 06:32:43;;;;;;;44.88;12.68;;;3.80;99.90;;;;;;4951223;27;20082;-82
2021/03/01 06:35:27;;;;;;;38.58;11.35;;;3.80;99.90;;;;;;4952384;27;20097;-82
2021/03/01 06:38:19;;;;;;;30.38;10.38;;;3.80;99.90;;;;;;4951591;27;20081;-82
2021/03/01 06:40:42;;;;;;;37.17;10.25;;;3.90;99.90;;;;;;4942280;27;20528;-83
2021/03/01 06:43:11;;;;;;;45.35;11.68;;;3.90;99.90;;;;;;4947986;27;20094;-82
2021/03/01 06:45:33;;;;;;;39.50;10.88;;;4.00;99.90;;;;;;4945355;27;20520;-83
2021/03/01 06:47:56;;;;;;;46.42;11.77;;;4.00;99.90;;;;;;4952401;27;20093;-84
2021/03/01 06:50:34;;;;;;;42.53;11.10;;;4.00;99.90;;;;;;4948332;27;20494;-83
2021/03/01 06:52:57;;;;;;;33.00;11.07;;;4.10;99.90;;;;;;4955156;27;20093;-82
2021/03/01 06:55:20;;;;;;;37.25;10.48;;;4.10;99.90;;;;;;4953980;27;20085;-82
2021/03/01 06:57:43;;;;;;;44.08;10.88;;;4.20;99.90;;;;;;4953133;27;20555;-79
2021/03/01 07:00:07;;;;;;;38.45;10.55;;;4.20;99.90;;;;;;4953415;27;20112;-83
2021/03/01 07:02:37;;;;;;;44.75;10.18;;;4.20;99.90;;;;;;4937894;28;20082;-82
2021/03/01 07:04:59;;;;;;;38.75;10.57;;;4.30;99.90;;;;;;4953115;27;20112;-83
2021/03/01 07:07:35;;;;;;;38.53;9.00;;;4.30;99.90;;;;;;4954524;27;20452;-83
2021/03/01 07:09:57;;;;;;;33.92;10.02;;;4.40;99.90;;;;;;4958544;27;20168;-83
2021/03/01 07:12:36;;;;;;;32.63;9.88;;;4.50;99.90;;;;;;4953550;27;20093;-78
2021/03/01 07:15:00;;;;;;;39.63;8.98;;;4.50;99.90;;;;;;4943745;27;20143;-83
2021/03/01 07:17:23;;;;;;;42.47;8.18;;;4.60;99.90;;;;;;4952870;27;20085;-82
2021/03/01 07:19:46;;;;;;;32.35;7.72;;;4.60;99.90;;;;;;4952965;27;20097;-82
2021/03/01 07:22:09;;;;;;;32.35;8.55;;;4.70;99.90;;;;;;4955228;27;20085;-83
2021/03/01 07:24:33;;;;;;;29.50;8.23;;;4.70;99.90;;;;;;4952908;27;20096;-78
2021/03/01 07:26:58;;;;;;;29.38;9.07;;;4.70;99.90;;;;;;4950062;27;20093;-81
2021/03/01 07:29:22;;;;;;;24.95;6.30;;;4.70;99.90;;;;;;4950651;27;20101;-83
2021/03/01 07:31:49;;;;;;;24.60;6.35;;;4.70;99.90;;;;;;4952799;27;20100;-81
2021/03/01 07:34:12;;;;;;;25.55;7.40;;;4.70;99.90;;;;;;4948828;27;20089;-82
2021/03/01 07:36:35;;;;;;;29.05;6.68;;;4.80;99.90;;;;;;4952771;27;20089;-81
2021/03/01 07:39:00;;;;;;;22.60;6.32;;;4.90;99.90;;;;;;4949693;27;20090;-82
2021/03/01 07:41:24;;;;;;;20.00;6.30;;;4.90;99.90;;;;;;4940595;27;20090;-83
2021/03/01 07:43:46;;;;;;;27.60;6.40;;;5.00;99.90;;;;;;4949514;27;20134;-82
2021/03/01 07:46:09;;;;;;;31.90;6.63;;;5.10;99.90;;;;;;4952197;27;20086;-83
2021/03/01 07:48:37;;;;;;;25.77;5.40;;;5.10;99.90;;;;;;4948073;27;20082;-82
2021/03/01 07:50:59;;;;;;;18.90;5.75;;;5.20;99.90;;;;;;4949744;27;20448;-82
2021/03/01 07:53:51;;;;;;;28.13;6.13;;;5.10;99.90;;;;;;4940426;27;20093;-79
2021/03/01 07:56:49;;;;;;;18.98;5.78;;;5.20;99.90;;;;;;4950975;27;20085;-83
2021/03/01 07:59:13;;;;;;;21.80;4.97;;;5.30;99.90;;;;;;4949098;27;20112;-82
2021/03/01 08:01:36;;;;;;;20.83;4.75;;;5.30;99.90;;;;;;4950602;27;20461;-81
2021/03/01 08:03:59;;;;;;;15.77;4.43;;;5.40;99.90;;;;;;4950951;27;20109;-82
2021/03/01 08:06:22;;;;;;;23.33;4.38;;;5.50;99.90;;;;;;4952759;27;20117;-83
2021/03/01 08:08:47;;;;;;;24.25;4.70;;;5.50;99.90;;;;;;4955230;27;20090;-82
2021/03/01 08:11:11;;;;;;;22.73;4.35;;;5.60;99.90;;;;;;4949234;27;20090;-82
2021/03/01 08:13:34;;;;;;;22.85;4.65;;;5.50;99.90;;;;;;4953372;27;20089;-79
2021/03/01 08:16:18;;;;;;;28.83;4.13;;;5.50;99.90;;;;;;4938137;27;20082;-82
2021/03/01 08:18:54;;;;;;;14.32;4.05;;;5.60;99.90;;;;;;4945678;27;20095;-83
2021/03/01 08:21:16;;;;;;;12.68;3.80;;;6.00;99.90;;;;;;4952150;27;20081;-83
2021/03/01 08:23:39;;;;;;;19.58;4.93;;;5.70;99.90;;;;;;4954573;27;20586;-81
2021/03/01 08:26:04;;;;;;;27.23;4.95;;;5.80;99.90;;;;;;4950853;27;20413;-80
2021/03/01 08:28:54;;;;;;;28.63;5.22;;;5.80;99.90;;;;;;4950936;27;20088;-83
2021/03/01 08:31:31;;;;;;;21.10;4.68;;;5.80;99.90;;;;;;4950448;27;20436;-82
2021/03/01 08:34:14;;;;;;;26.73;4.32;;;5.80;99.90;;;;;;4955236;27;20139;-83
2021/03/01 08:36:43;;;;;;;20.02;5.03;;;5.90;99.90;;;;;;4945383;27;20157;-79
2021/03/01 08:39:06;;;;;;;15.77;4.95;;;6.00;99.90;;;;;;4953685;27;20165;-82
2021/03/01 08:41:42;;;;;;;12.05;3.97;;;6.00;99.90;;;;;;4957241;27;20589;-82
2021/03/01 08:44:17;;;;;;;17.55;4.30;;;6.00;99.90;;;;;;4952171;27;20139;-79
2021/03/01 08:46:40;;;;;;;19.75;4.35;;;6.10;99.90;;;;;;4956218;27;20157;-83
2021/03/01 08:49:02;;;;;;;17.35;4.90;;;6.10;99.90;;;;;;4957940;27;20139;-82
2021/03/01 08:51:25;;;;;;;23.90;5.80;;;6.20;99.90;;;;;;4956239;27;20124;-83
2021/03/01 08:53:51;;;;;;;29.40;5.88;;;6.10;99.90;;;;;;4954622;27;20126;-82
2021/03/01 08:56:18;;;;;;;21.50;6.15;;;6.20;99.90;;;;;;4953479;27;20327;-81
2021/03/01 08:58:40;;;;;;;21.55;5.70;;;6.10;99.90;;;;;;4956659;27;20090;-83
2021/03/01 09:01:05;;;;;;;24.60;5.97;;;6.10;99.90;;;;;;4939191;27;20096;-82
2021/03/01 09:03:31;;;;;;;15.65;5.75;;;6.00;99.90;;;;;;4928357;27;20089;-81
2021/03/01 09:06:03;;;;;;;17.23;5.63;;;6.00;99.90;;;;;;4934285;27;20692;-83
2021/03/01 09:08:33;;;;;;;16.77;5.30;;;6.10;99.90;;;;;;4939383;27;20078;-83
2021/03/01 09:11:00;;;;;;;21.95;5.53;;;6.10;99.90;;;;;;4947325;27;20181;-81
2021/03/01 09:13:25;;;;;;;18.63;5.10;;;6.20;99.90;;;;;;4936432;27;20093;-82
2021/03/01 09:15:49;;;;;;;18.27;4.72;;;6.30;99.90;;;;;;4918349;27;20166;-82
2021/03/01 09:18:13;;;;;;;17.85;5.40;;;6.40;99.90;;;;;;4919487;27;20573;-83
2021/03/01 09:20:51;;;;;;;13.77;5.60;;;6.50;99.90;;;;;;4922617;27;20548;-83
2021/03/01 09:23:30;;;;;;;12.52;4.28;;;6.60;99.90;;;;;;4923831;27;21099;-83
2021/03/01 09:25:55;;;;;;;20.08;5.75;;;;;;;;;;4921724;27;20146;-83
2021/03/01 09:28:28;;;;;;;21.13;6.00;;;6.90;99.90;;;;;;4918892;27;20171;-83
2021/03/01 09:31:02;;;;;;;18.52;5.55;;;7.00;99.90;;;;;;4925213;27;20137;-83
2021/03/01 09:33:33;;;;;;;17.70;5.50;;;7.00;99.90;;;;;;4923596;27;20145;-82
2021/03/01 09:36:01;;;;;;;15.20;5.10;;;6.80;99.90;;;;;;4934162;27;20516;-82
2021/03/01 09:38:29;;;;;;;14.93;5.53;;;6.90;99.90;;;;;;4914607;27;20160;-83
2021/03/01 09:41:05;;;;;;;27.33;6.13;;;6.80;99.90;;;;;;4909013;27;20501;-81
2021/03/01 09:43:28;;;;;;;;;;;6.70;99.90;;;;;;4931603;27;20110;-82
2021/03/01 09:45:53;;;;;;;17.42;5.43;;;6.70;99.90;;;;;;4912590;27;20410;-81
2021/03/01 09:48:16;;;;;;;11.27;5.37;;;6.70;99.90;;;;;;4924984;27;20406;-82
2021/03/01 09:50:43;;;;;;;18.92;6.40;;;6.60;99.90;;;;;;4913930;27;20131;-81
2021/03/01 09:53:07;;;;;;;16.55;6.03;;;6.50;99.90;;;;;;4908171;27;20121;-81
2021/03/01 09:55:30;;;;;;;17.73;6.18;;;6.40;99.90;;;;;;4922027;27;20906;-81
2021/03/01 09:57:53;;;;;;;23.58;6.65;;;6.60;99.90;;;;;;4934558;27;20085;-82
2021/03/01 10:00:31;;;;;;;24.98;6.63;;;6.50;99.90;;;;;;4907394;27;20176;-81
2021/03/01 10:03:05;;;;;;;17.58;6.38;;;6.70;99.90;;;;;;4912800;27;20089;-81
2021/03/01 10:05:34;;;;;;;15.05;6.30;;;6.90;99.90;;;;;;4910811;27;21695;-85
2021/03/01 10:08:02;;;;;;;19.17;7.05;;;7.10;99.90;;;;;;4923270;27;20434;-83
2021/03/01 10:10:33;;;;;;;25.02;7.22;;;7.00;99.90;;;;;;4923992;27;20086;-79
2021/03/01 10:12:59;;;;;;;19.02;6.40;;;6.90;99.90;;;;;;4922601;27;20084;-83
2021/03/01 10:15:23;;;;;;;;;;;6.80;99.90;;;;;;4933402;27;20241;-84
2021/03/01 10:17:50;;;;;;;21.60;6.88;;;6.70;99.90;;;;;;4915406;27;19973;-83
2021/03/01 10:20:16;;;;;;;17.60;7.55;;;6.90;99.90;;;;;;4926099;27;20102;-83
2021/03/01 10:23:11;;;;;;;18.30;7.35;;;7.10;99.90;;;;;;4940248;27;20203;-84
2021/03/01 10:25:37;;;;;;;20.13;7.53;;;7.60;99.90;;;;;;4841445;28;20090;-82
2021/03/01 10:28:00;;;;;;;18.15;7.45;;;7.80;99.90;;;;;;4906178;27;20202;-83
2021/03/01 10:30:25;;;;;;;17.38;7.55;;;7.80;99.90;;;;;;4901271;28;20113;-82
2021/03/01 10:32:49;;;;;;;25.42;8.43;;;7.80;99.90;;;;;;4884195;28;20144;-82
2021/03/01 10:35:19;;;;;;;22.98;8.25;;;7.90;99.90;;;;;;4934216;27;20434;-81
2021/03/01 10:38:00;;;;;;;22.95;8.52;;;7.90;99.90;;;;;;4932881;27;20081;-82
2021/03/01 10:40:27;;;;;;;22.70;9.00;;;8.00;99.90;;;;;;4950400;27;20175;-82
2021/03/01 10:42:55;;;;;;;24.05;9.45;;;7.90;99.90;;;;;;4914981;27;20088;-82
2021/03/01 10:45:23;;;;;;;29.95;9.40;;;7.70;99.90;;;;;;4902870;27;20184;-83
2021/03/01 10:48:00;;;;;;;30.45;9.45;;;7.60;99.90;;;;;;4914229;27;20092;-82
2021/03/01 10:50:23;;;;;;;21.55;8.07;;;7.30;99.90;;;;;;4944920;27;20103;-83
2021/03/01 10:52:45;;;;;;;15.20;7.97;;;7.40;99.90;;;;;;4953787;27;20094;-82
2021/03/01 10:55:09;;;;;;;26.40;9.25;;;7.20;99.90;;;;;;4955205;27;20107;-81
2021/03/01 10:57:32;;;;;;;16.02;7.35;;;7.40;99.90;;;;;;4951302;27;21117;-84
2021/03/01 10:59:56;;;;;;;25.75;8.80;;;7.60;99.90;;;;;;4953041;27;20140;-81
2021/03/01 11:02:18;;;;;;;24.35;8.32;;;;;;;;;;4951656;27;20296;-83
2021/03/01 11:04:41;;;;;;;20.30;8.27;;;8.20;99.90;;;;;;4958114;27;20541;-83
2021/03/01 11:07:03;;;;;;;21.38;9.23;;;8.40;99.90;;;;;;4956421;27;20088;-83
2021/03/01 11:09:26;;;;;;;27.75;9.70;;;8.40;99.90;;;;;;4953696;27;20094;-82
2021/03/01 11:11:51;;;;;;;26.65;9.48;;;8.40;99.90;;;;;;4945951;27;20091;-82
2021/03/01 11:14:16;;;;;;;26.13;10.90;;;8.60;99.90;;;;;;4952854;27;20083;-81
2021/03/01 11:16:39;;;;;;;32.17;10.03;;;8.60;99.90;;;;;;4946973;27;20119;-83
2021/03/01 11:19:03;;;;;;;20.25;9.10;;;8.50;99.90;;;;;;4955669;27;20071;-81
2021/03/01 11:21:27;;;;;;;24.27;9.27;;;8.00;99.90;;;;;;4951970;27;25601;-82
2021/03/01 11:23:49;;;;;;;22.67;9.60;;;7.60;99.90;;;;;;4952551;27;20087;-81
2021/03/01 11:26:14;;;;;;;22.63;8.52;;;7.60;99.90;;;;;;4956502;27;20128;-83
2021/03/01 11:28:37;;;;;;;21.48;8.93;;;7.50;99.90;;;;;;4955159;27;20537;-82
2021/03/01 11:31:00;;;;;;;22.77;10.50;;;7.60;99.90;;;;;;4952164;27;20091;-84
2021/03/01 11:33:23;;;;;;;24.25;10.82;;;7.70;99.90;;;;;;4953292;27;20090;-82
2021/03/01 11:35:48;;;;;;;20.77;9.90;;;7.80;99.90;;;;;;4953107;27;20098;-83
2021/03/01 11:38:10;;;;;;;30.30;10.38;;;8.10;99.90;;;;;;4954801;27;20087;-80
2021/03/01 11:40:33;;;;;;;22.58;9.90;;;8.20;99.90;;;;;;4953301;27;20086;-82
2021/03/01 11:42:56;;;;;;;22.30;10.00;;;8.40;99.90;;;;;;4956049;27;20527;-83
2021/03/01 11:45:19;;;;;;;20.23;9.63;;;8.60;99.90;;;;;;4950344;27;20087;-83
2021/03/01 11:47:42;;;;;;;28.98;9.80;;;7.90;99.90;;;;;;4953648;27;20197;-81
2021/03/01 11:50:06;;;;;;;27.23;10.05;;;7.70;99.90;;;;;;4955812;27;20449;-83
2021/03/01 11:52:28;;;;;;;22.38;9.68;;;7.60;99.90;;;;;;4950150;27;20081;-82
2021/03/01 11:54:51;;;;;;;21.30;10.00;;;7.40;99.90;;;;;;4943209;27;20629;-83
2021/03/01 11:57:14;;;;;;;22.50;10.25;;;;;;;;;;4949509;27;20092;-81
2021/03/01 11:59:36;;;;;;;22.17;8.90;;;7.80;99.90;;;;;;4955154;27;20091;-85
2021/03/01 12:01:59;;;;;;;19.60;8.90;;;7.70;99.90;;;;;;4952161;27;20089;-82
2021/03/01 12:04:22;;;;;;;20.75;8.65;;;7.70;99.90;;;;;;4955438;27;20576;-83
2021/03/01 12:06:44;;;;;;;24.30;9.40;;;7.80;99.90;;;;;;4955552;27;20094;-82
2021/03/01 12:09:07;;;;;;;23.05;8.77;;;7.90;99.90;;;;;;4951262;27;20095;-82
2021/03/01 12:11:29;;;;;;;25.15;8.73;;;7.80;99.90;;;;;;4948432;27;20107;-84
2021/03/01 12:13:52;;;;;;;34.13;9.30;;;7.40;99.90;;;;;;4955927;27;20088;-82
2021/03/01 12:16:14;;;;;;;25.20;8.43;;;7.40;99.90;;;;;;4955818;27;20164;-83
2021/03/01 12:18:37;;;;;;;25.38;9.32;;;7.60;99.90;;;;;;4959179;27;20080;-83
2021/03/01 12:21:00;;;;;;;23.10;7.32;;;7.60;99.90;;;;;;4947038;27;21093;-83
2021/03/01 12:23:24;;;;;;;24.63;8.27;;;7.60;99.90;;;;;;4954135;27;20089;-80
2021/03/01 12:25:46;;;;;;;14.90;7.50;;;7.50;99.90;;;;;;4961410;27;20126;-83
2021/03/01 12:28:09;;;;;;;15.98;7.45;;;7.50;99.90;;;;;;4954423;27;20116;-82
2021/03/01 12:30:31;;;;;;;20.23;7.80;;;7.70;99.90;;;;;;4955620;27;20087;-83
2021/03/01 12:32:54;;;;;;;23.08;7.72;;;8.10;99.90;;;;;;4959339;27;20096;-82
2021/03/01 12:35:17;;;;;;;20.67;7.53;;;8.40;99.90;;;;;;4958073;27;20100;-82
2021/03/01 12:37:41;;;;;;;24.05;7.28;;;8.40;99.90;;;;;;4954326;27;20095;-83